Time;durP1;ratioP1;P1;durP2;ratioP2;P2;SDS_P1;SDS_P2;PMS_P1;PMS_P2;Temp;Humidity;BMP_temperature;BMP_pressure;BME280_temperature;BME280_humidity;BME280_pressure;Samples;Min_cycle;Max_cycle;Signal;HPM_P1;HPM_P2
2024/01/16 05:23:56;;;;;;;;;78.75;60.00;;;;;-2.58;100.00;100908.97;5128083;22;46490;-74
2024/01/16 05:26:22;;;;;;;;;90.50;64.25;;;;;-2.49;100.00;100925.25;5010014;28;45344;-73
2024/01/16 05:28:47;;;;;;;;;78.25;61.25;;;;;-2.39;100.00;100948.47;5011499;28;45459;-73
2024/01/16 05:31:12;;;;;;;;;79.00;63.75;;;;;-2.39;100.00;100944.97;5011360;28;47248;-74
2024/01/16 05:33:38;;;;;;;;;83.50;60.75;;;;;-2.89;100.00;100854.84;4994216;28;46592;-74
2024/01/16 05:36:03;;;;;;;;;77.75;61.50;;;;;-2.41;100.00;100944.84;5012135;28;45455;-74
2024/01/16 05:38:29;;;;;;;;;79.75;60.75;;;;;-2.54;100.00;100930.06;4999684;28;45270;-75
2024/01/16 05:40:54;;;;;;;;;76.00;61.50;;;;;-2.58;100.00;100933.16;5020943;28;45889;-74
2024/01/16 05:43:19;;;;;;;;;80.75;66.00;;;;;-2.55;100.00;100936.03;5014332;28;45263;-75
2024/01/16 05:45:45;;;;;;;;;73.25;59.00;;;;;-2.75;100.00;100897.31;5012900;28;48676;-73
2024/01/16 05:48:10;;;;;;;;;79.25;60.50;;;;;-2.64;100.00;100908.50;5000435;28;45238;-74
2024/01/16 05:50:36;;;;;;;;;82.25;64.00;;;;;-2.43;100.00;100930.91;5015474;28;45481;-74
2024/01/16 05:53:02;;;;;;;;;72.00;59.00;;;;;-2.75;100.00;100874.03;5014149;28;46278;-75
2024/01/16 05:55:27;;;;;;;;;79.75;60.50;;;;;-2.86;100.00;100854.19;5014933;28;45391;-73
2024/01/16 05:57:53;;;;;;;;;79.25;63.00;;;;;-2.43;100.00;100920.53;5016161;28;45309;-75
2024/01/16 06:00:22;;;;;;;;;77.50;60.50;;;;;-2.86;100.00;100849.91;5001345;28;45354;-75
2024/01/16 06:02:47;;;;;;;;;72.25;57.25;;;;;-2.42;100.00;100921.44;4998796;28;47339;-75
2024/01/16 06:05:13;;;;;;;;;76.50;58.75;;;;;-2.43;100.00;100919.66;5016894;28;51234;-74
2024/01/16 06:07:39;;;;;;;;;85.50;63.75;;;;;-3.08;100.00;100799.88;4998864;28;46068;-74
2024/01/16 06:10:05;;;;;;;;;79.25;64.00;;;;;-2.46;100.00;100909.97;5011305;28;45215;-74
2024/01/16 06:12:31;;;;;;;;;79.75;63.00;;;;;-2.67;100.00;100879.81;4999928;28;47339;-74
2024/01/16 06:14:57;;;;;;;;;70.50;60.75;;;;;-2.68;100.00;100873.75;5010636;28;44654;-73
2024/01/16 06:17:23;;;;;;;;;89.50;65.75;;;;;-3.30;100.00;100764.63;5018292;28;45259;-75
2024/01/16 06:19:48;;;;;;;;;77.00;58.50;;;;;-2.47;100.00;100919.38;5011452;28;45474;-77
2024/01/16 06:22:13;;;;;;;;;87.00;66.50;;;;;-2.79;100.00;100862.56;5015468;28;55087;-76
2024/01/16 06:24:39;;;;;;;;;96.25;70.50;;;;;-2.50;100.00;100926.00;4995541;28;45326;-76
2024/01/16 06:27:06;;;;;;;;;82.00;65.25;;;;;-2.85;100.00;100869.84;4995717;28;45314;-76
2024/01/16 06:29:31;;;;;;;;;78.50;63.00;;;;;-2.75;100.00;100892.16;4991083;28;45277;-77
2024/01/16 06:31:57;;;;;;;;;78.50;58.50;;;;;-3.26;100.00;100799.34;4996667;28;46272;-77
2024/01/16 06:34:22;;;;;;;;;81.00;66.00;;;;;-2.88;100.00;100859.25;4992246;28;45376;-77
2024/01/16 06:36:47;;;;;;;;;85.50;63.50;;;;;-2.74;100.00;100884.50;4998544;28;45246;-76
2024/01/16 06:39:13;;;;;;;;;83.25;65.25;;;;;-2.81;100.00;100868.38;4984718;28;47017;-75
2024/01/16 06:41:40;;;;;;;;;76.25;60.50;;;;;-2.75;100.00;100884.38;4998030;28;45234;-75
2024/01/16 06:44:06;;;;;;;;;83.25;63.75;;;;;-2.95;100.00;100850.09;4980785;28;45312;-75
2024/01/16 06:46:31;;;;;;;;;88.50;61.75;;;;;-2.80;100.00;100885.69;4998143;28;45288;-75
2024/01/16 06:48:57;;;;;;;;;89.50;68.25;;;;;-2.56;100.00;100933.31;4998515;28;45658;-76
2024/01/16 06:51:22;;;;;;;;;97.25;69.75;;;;;-3.13;100.00;100833.16;4994322;28;45263;-77
2024/01/16 06:53:47;;;;;;;;;79.00;66.75;;;;;-2.79;100.00;100893.59;4997678;28;45396;-76
2024/01/16 06:56:13;;;;;;;;;88.50;65.75;;;;;-2.77;100.00;100899.81;5006268;28;45195;-76
2024/01/16 06:58:38;;;;;;;;;85.00;68.00;;;;;-2.59;100.00;100939.13;4990999;28;58639;-75
2024/01/16 07:01:03;;;;;;;;;87.75;67.50;;;;;-2.58;100.00;100951.28;4999247;28;46448;-75
2024/01/16 07:03:29;;;;;;;;;87.75;68.75;;;;;-2.70;100.00;100920.19;5000034;28;45246;-75
2024/01/16 07:05:54;;;;;;;;;91.75;69.00;;;;;-2.90;100.00;100880.59;5000737;28;44750;-76
2024/01/16 07:08:20;;;;;;;;;93.50;70.50;;;;;-2.65;100.00;100928.31;4976278;28;46939;-75
2024/01/16 07:10:46;;;;;;;;;90.00;67.00;;;;;-2.84;100.00;100888.84;5000048;28;46203;-76
2024/01/16 07:13:12;;;;;;;;;95.50;73.25;;;;;-2.55;100.00;100940.28;4999143;28;45346;-75
2024/01/16 07:15:37;;;;;;;;;99.00;71.00;;;;;-2.84;100.00;100896.59;5000230;28;45342;-75
2024/01/16 07:18:03;;;;;;;;;93.75;72.75;;;;;-2.53;100.00;100936.13;4981497;28;46620;-75
2024/01/16 07:20:28;;;;;;;;;90.50;68.50;;;;;-2.50;100.00;100928.59;5000148;28;45251;-76
2024/01/16 07:22:53;;;;;;;;;87.50;69.25;;;;;-2.48;100.00;100924.47;4980953;28;45481;-75
2024/01/16 07:25:19;;;;;;;;;81.75;65.25;;;;;-2.69;100.00;100884.84;5000053;28;45155;-75
2024/01/16 07:27:48;;;;;;;;;93.50;68.25;;;;;-2.53;100.00;100915.44;4997833;28;45437;-76
2024/01/16 07:30:14;;;;;;;;;91.25;69.75;;;;;-2.75;100.00;100879.22;4996637;28;46512;-76
2024/01/16 07:32:39;;;;;;;;;91.25;66.00;;;;;-2.62;100.00;100897.50;4997140;28;45444;-75
2024/01/16 07:35:05;;;;;;;;;89.00;66.25;;;;;-2.61;100.00;100908.75;4991542;28;45321;-76
2024/01/16 07:37:30;;;;;;;;;92.25;70.25;;;;;-2.56;100.00;100905.75;4979612;28;46837;-75
2024/01/16 07:39:55;;;;;;;;;93.75;70.00;;;;;-3.10;100.00;100801.47;4989901;28;45444;-75
2024/01/16 07:42:21;;;;;;;;;90.00;68.75;;;;;-2.47;100.00;100890.03;4982731;28;45735;-76
2024/01/16 07:44:46;;;;;;;;;90.25;69.25;;;;;-2.55;100.00;100867.81;4983113;28;52797;-75
2024/01/16 07:47:11;;;;;;;;;87.25;68.50;;;;;-2.47;100.00;100888.31;5000775;28;58770;-75
2024/01/16 07:49:36;;;;;;;;;92.50;67.00;;;;;-2.51;100.00;100888.00;5001415;28;45713;-76
2024/01/16 07:52:02;;;;;;;;;87.00;65.50;;;;;-2.53;100.00;100898.22;5000664;28;51631;-76
2024/01/16 07:54:27;;;;;;;;;77.00;61.25;;;;;-2.40;100.00;100920.78;5001354;28;45241;-75
2024/01/16 07:56:53;;;;;;;;;69.50;57.50;;;;;-2.54;100.00;100896.41;4982762;28;46750;-75
2024/01/16 07:59:18;;;;;;;;;84.75;62.50;;;;;-2.56;100.00;100891.91;4987969;28;45349;-75
2024/01/16 08:01:43;;;;;;;;;88.50;66.00;;;;;-2.71;100.00;100866.66;5001046;28;45375;-76
2024/01/16 08:04:09;;;;;;;;;85.75;64.75;;;;;-2.29;100.00;100932.88;4981734;28;45282;-75
2024/01/16 08:06:34;;;;;;;;;84.75;65.50;;;;;-2.50;100.00;100892.38;5000606;28;45365;-75
2024/01/16 08:09:00;;;;;;;;;90.50;70.75;;;;;-2.51;100.00;100891.47;4982759;28;56405;-75
2024/01/16 08:11:25;;;;;;;;;89.75;67.75;;;;;-2.50;100.00;100906.22;5001057;28;45227;-76
2024/01/16 08:13:50;;;;;;;;;89.50;68.50;;;;;-3.06;100.00;100795.75;4981229;28;45331;-75
2024/01/16 08:16:16;;;;;;;;;85.00;64.75;;;;;-2.25;100.00;100945.25;4982783;28;45501;-75
2024/01/16 08:18:41;;;;;;;;;86.50;66.50;;;;;-2.61;100.00;100873.41;4999841;28;46270;-75
2024/01/16 08:21:07;;;;;;;;;83.50;66.25;;;;;-2.40;100.00;100891.41;5000531;28;60707;-75
2024/01/16 08:23:33;;;;;;;;;87.75;69.00;;;;;-2.13;100.00;100942.72;4996141;28;45337;-75
2024/01/16 08:25:58;;;;;;;;;90.50;67.50;;;;;-2.48;100.00;100877.88;5000738;28;45299;-76
2024/01/16 08:28:24;;;;;;;;;92.75;70.50;;;;;-2.83;100.00;100802.69;4980693;28;62421;-76
2024/01/16 08:30:50;;;;;;;;;85.75;66.75;;;;;-2.33;100.00;100889.38;4997616;28;45334;-77
2024/01/16 08:33:15;;;;;;;;;81.50;64.00;;;;;-2.07;100.00;100935.44;4998678;28;45417;-75
2024/01/16 08:35:40;;;;;;;;;86.25;68.00;;;;;-2.16;100.00;100908.81;5000836;28;47017;-74
2024/01/16 08:38:06;;;;;;;;;87.25;66.25;;;;;-2.00;100.00;100934.19;4999811;28;45329;-78
2024/01/16 08:40:31;;;;;;;;;86.25;64.00;;;;;-1.93;100.00;100944.25;5000071;28;45274;-76
2024/01/16 08:42:56;;;;;;;;;85.25;64.00;;;;;-1.92;100.00;100932.19;5000300;28;47200;-75
2024/01/16 08:45:22;;;;;;;;;85.25;68.00;;;;;-2.48;100.00;100805.41;5000686;28;45574;-75
2024/01/16 08:47:47;;;;;;;;;84.50;65.50;;;;;-2.21;100.00;100840.25;5000473;28;45361;-76
2024/01/16 08:50:14;;;;;;;;;87.75;69.25;;;;;-1.60;100.00;100937.19;4980864;28;45384;-76
2024/01/16 08:52:40;;;;;;;;;90.50;65.75;;;;;-1.62;100.00;100923.25;4974478;28;45488;-75
2024/01/16 08:55:05;;;;;;;;;87.00;65.75;;;;;-1.50;100.00;100923.25;4986418;28;45952;-76
2024/01/16 08:57:30;;;;;;;;;89.50;66.75;;;;;-1.56;100.00;100904.66;4979670;28;48136;-76
2024/01/16 08:59:56;;;;;;;;;84.25;67.00;;;;;-1.76;100.00;100872.97;4998895;28;45317;-77
2024/01/16 09:02:21;;;;;;;;;78.00;64.00;;;;;-1.58;100.00;100905.41;4999718;28;45745;-75
2024/01/16 09:04:47;;;;;;;;;82.25;65.00;;;;;-1.38;100.00;100937.09;4995552;28;45404;-76
2024/01/16 09:07:15;;;;;;;;;85.25;65.50;;;;;-1.59;100.00;100898.44;4999902;28;45533;-76
2024/01/16 09:09:41;;;;;;;;;89.00;70.50;;;;;-1.36;100.00;100931.25;4997103;28;45233;-76
2024/01/16 09:12:08;;;;;;;;;93.75;70.75;;;;;-1.34;100.00;100928.78;5000097;28;45262;-76
2024/01/16 09:14:33;;;;;;;;;83.00;66.50;;;;;-1.60;100.00;100891.47;4998358;28;45353;-76
2024/01/16 09:16:58;;;;;;;;;96.00;72.50;;;;;-1.58;100.00;100899.34;4981875;28;46952;-76
2024/01/16 09:19:24;;;;;;;;;89.00;69.75;;;;;-1.63;100.00;100900.69;4998982;28;45183;-76
2024/01/16 09:21:49;;;;;;;;;88.00;66.50;;;;;-1.38;100.00;100940.59;4999340;28;49090;-76
2024/01/16 09:24:14;;;;;;;;;86.00;66.25;;;;;-1.40;100.00;100931.81;4991425;28;51893;-75
2024/01/16 09:26:40;;;;;;;;;90.25;68.00;;;;;-1.42;100.00;100924.72;4997933;28;51676;-77
2024/01/16 09:29:05;;;;;;;;;96.25;73.25;;;;;-1.38;100.00;100909.47;4994697;28;45267;-76
2024/01/16 09:31:30;;;;;;;;;85.50;66.00;;;;;-1.65;100.00;100855.63;4999724;28;45487;-76
2024/01/16 09:33:55;;;;;;;;;92.25;71.50;;;;;-1.23;100.00;100922.69;4996770;28;51653;-77
2024/01/16 09:36:21;;;;;;;;;95.00;73.00;;;;;-1.38;100.00;100893.94;4998270;28;45246;-75
2024/01/16 09:38:46;;;;;;;;;89.00;68.00;;;;;-1.25;100.00;100895.75;4997397;28;45197;-75
2024/01/16 09:41:13;;;;;;;;;95.50;71.75;;;;;-1.09;100.00;100909.81;4997861;28;45287;-76
2024/01/16 09:43:39;;;;;;;;;87.00;68.75;;;;;-1.04;100.00;100913.63;4985977;28;45505;-75
2024/01/16 09:46:07;;;;;;;;;88.75;71.75;;;;;-0.99;100.00;100901.91;4991677;28;45584;-77
2024/01/16 09:48:32;;;;;;;;;88.50;69.00;;;;;-1.00;100.00;100902.72;4999342;28;45306;-75
2024/01/16 09:50:58;;;;;;;;;89.50;67.00;;;;;-1.35;100.00;100826.72;4979768;28;45765;-76
2024/01/16 09:53:23;;;;;;;;;95.50;72.00;;;;;-1.36;100.00;100827.53;4992256;28;45489;-76
2024/01/16 09:55:50;;;;;;;;;96.00;71.00;;;;;-0.89;100.00;100901.78;4999526;28;46230;-76
2024/01/16 09:58:19;;;;;;;;;94.50;71.00;;;;;-0.81;100.00;100910.09;4993568;28;45318;-76
2024/01/16 10:00:46;;;;;;;;;95.00;72.75;;;;;-0.74;100.00;100913.22;4999705;28;45441;-75
2024/01/16 10:03:14;;;;;;;;;95.25;73.00;;;;;-0.66;100.00;100900.81;4994464;28;45520;-76
2024/01/16 10:05:44;;;;;;;;;92.50;69.00;;;;;-0.86;100.00;100851.81;4980937;28;45267;-76
2024/01/16 10:08:09;;;;;;;;;98.00;73.00;;;;;-0.65;100.00;100866.25;4994528;28;45492;-76
2024/01/16 10:10:35;;;;;;;;;102.50;73.50;;;;;-0.32;100.00;100896.25;4999237;28;45520;-76
2024/01/16 10:13:00;;;;;;;;;95.00;72.75;;;;;-0.21;100.00;100878.81;4992360;28;47397;-75
2024/01/16 10:15:25;;;;;;;;;102.00;78.25;;;;;0.06;100.00;100879.81;4992678;28;45341;-74
2024/01/16 10:17:51;;;;;;;;;97.50;74.50;;;;;0.41;100.00;100891.66;4996563;28;46644;-75
2024/01/16 10:20:31;;;;;;;;;93.25;70.50;;;;;0.66;100.00;100894.16;4976203;28;45397;-74
2024/01/16 10:22:58;;;;;;;;;95.25;74.25;;;;;0.94;100.00;100882.94;4997296;28;44727;-75
2024/01/16 10:25:24;;;;;;;;;98.25;75.25;;;;;0.98;100.00;100843.28;4980716;28;47215;-76
2024/01/16 10:28:02;;;;;;;;;93.50;71.75;;;;;1.41;100.00;100878.13;4998640;28;45381;-75
2024/01/16 10:30:27;;;;;;;;;93.50;72.25;;;;;1.25;100.00;100792.94;4994208;28;45406;-75
2024/01/16 10:32:52;;;;;;;;;88.75;69.25;;;;;1.62;100.00;100826.41;4999462;28;48765;-74
2024/01/16 10:35:18;;;;;;;;;95.00;72.33;;;;;1.74;100.00;100813.25;4984271;28;46223;-75
2024/01/16 10:37:49;;;;;;;;;87.75;69.25;;;;;2.05;100.00;100830.72;4979210;28;45393;-75
2024/01/16 10:40:25;;;;;;;;;99.75;79.50;;;;;2.10;100.00;100805.78;4986889;28;45269;-78
2024/01/16 10:43:01;;;;;;;;;92.50;71.25;;;;;2.60;100.00;100866.06;4989102;28;45417;-78
2024/01/16 10:45:27;;;;;;;;;94.00;73.25;;;;;2.79;100.00;100856.69;4999504;28;45645;-75
2024/01/16 10:48:07;;;;;;;;;96.50;74.75;;;;;2.95;100.00;100851.53;4981630;28;45428;-76
2024/01/16 10:50:33;;;;;;;;;90.33;70.00;;;;;3.13;100.00;100849.91;4991909;28;45162;-74
2024/01/16 10:53:03;;;;;;;;;87.33;68.00;;;;;3.28;100.00;100838.53;4991050;28;45512;-75
2024/01/16 10:55:30;;;;;;;;;92.00;71.33;;;;;3.10;100.00;100794.91;4993922;28;45390;-76
2024/01/16 10:57:56;;;;;;;;;91.00;69.00;;;;;3.41;100.00;100825.28;4988137;28;45293;-75
2024/01/16 11:00:24;;;;;;;;;91.33;69.67;;;;;3.33;100.00;100795.22;4988460;28;45235;-75
2024/01/16 11:03:15;;;;;;;;;89.00;69.00;;;;;3.51;100.00;100824.06;4993805;28;46198;-74
2024/01/16 11:05:41;;;;;;;;;84.33;67.67;;;;;3.62;100.00;100838.59;4991205;28;45390;-73
2024/01/16 11:08:08;;;;;;;;;89.33;69.00;;;;;3.44;100.00;100794.09;4996539;28;45273;-76
2024/01/16 11:10:35;;;;;;;;;82.67;65.67;;;;;3.30;100.00;100768.94;4990191;28;45982;-76
2024/01/16 11:13:02;;;;;;;;;84.33;65.00;;;;;3.68;100.00;100830.19;4993302;28;45375;-76
2024/01/16 11:15:28;;;;;;;;;90.33;66.00;;;;;3.49;100.00;100790.00;4987374;28;46066;-76
2024/01/16 11:17:55;;;;;;;;;88.00;67.00;;;;;3.72;100.00;100827.78;4999226;28;45302;-77
2024/01/16 11:20:21;;;;;;;;;89.00;68.67;;;;;2.99;100.00;100707.25;4989995;28;45264;-76
2024/01/16 11:22:49;;;;;;;;;86.00;63.00;;;;;3.16;100.00;100731.66;5003764;28;45286;-78
2024/01/16 11:25:16;;;;;;;;;85.67;65.67;;;;;3.49;100.00;100770.81;5000803;28;45369;-77
2024/01/16 11:27:43;;;;;;;;;92.33;68.67;;;;;3.78;100.00;100788.00;4984815;28;45314;-78
2024/01/16 11:30:10;;;;;;;;;86.00;65.67;;;;;3.87;100.00;100788.50;4997923;28;45436;-77
2024/01/16 11:32:41;;;;;;;;;79.33;64.00;;;;;3.82;100.00;100779.50;5001479;28;45245;-78
2024/01/16 11:35:11;;;;;;;;;75.67;61.33;;;;;3.90;100.00;100793.88;4996919;28;44990;-77
2024/01/16 11:37:40;;;;;;;;;80.00;63.33;;;;;3.67;100.00;100763.94;5003413;28;44816;-77
2024/01/16 11:40:20;;;;;;;;;74.67;61.67;;;;;3.94;100.00;100802.75;4996677;28;45342;-78
2024/01/16 11:42:50;;;;;;;;;72.33;59.00;;;;;3.73;100.00;100774.72;5003750;28;44906;-77
2024/01/16 11:45:27;;;;;;;;;65.33;54.67;;;;;3.93;100.00;100814.06;5004369;28;46591;-78
2024/01/16 11:48:12;;;;;;;;;74.00;55.33;;;;;3.94;100.00;100803.66;5003753;28;45509;-77
2024/01/16 11:50:38;;;;;;;;;68.67;56.00;;;;;3.94;100.00;100801.03;5004412;28;45342;-78
2024/01/16 11:53:04;;;;;;;;;59.25;44.50;;;;;3.97;100.00;100814.25;4981254;28;47447;-78
2024/01/16 11:55:35;;;;;;;;;49.75;42.25;;;;;3.87;100.00;100791.09;5004055;28;45279;-79
2024/01/16 11:58:15;;;;;;;;;34.50;32.50;;;;;3.97;100.00;100797.69;4987532;28;45453;-76
2024/01/16 12:00:45;;;;;;;;;27.25;22.25;;;;;3.87;100.00;100780.66;4996335;28;45226;-76
2024/01/16 12:03:14;;;;;;;;;22.25;21.75;;;;;3.86;100.00;100762.25;4999385;28;47268;-77
2024/01/16 12:05:39;;;;;;;;;26.50;26.50;;;;;3.44;100.00;100678.22;4984865;28;47572;-76
2024/01/16 12:08:06;;;;;;;;;38.50;34.25;;;;;3.59;100.00;100695.59;4998042;28;56097;-76
2024/01/16 12:10:31;;;;;;;;;39.25;34.50;;;;;4.03;100.00;100759.69;4985647;28;45347;-76
2024/01/16 12:12:59;;;;;;;;;29.75;27.75;;;;;3.96;100.00;100749.72;5002417;28;45385;-76
2024/01/16 12:15:24;;;;;;;;;33.75;27.25;;;;;3.81;100.00;100718.47;5003837;28;46075;-77
2024/01/16 12:17:56;;;;;;;;;41.50;38.25;;;;;3.97;100.00;100745.38;4984727;28;45309;-76
2024/01/16 12:20:22;;;;;;;;;30.50;25.50;;;;;3.78;100.00;100712.19;4981318;28;45244;-77
2024/01/16 12:22:56;;;;;;;;;15.00;11.50;;;;;3.99;100.00;100746.34;4986177;28;46126;-76
2024/01/16 12:25:22;;;;;;;;;5.00;5.00;;;;;3.98;100.00;100742.84;4998734;28;45255;-76
2024/01/16 12:28:01;;;;;;;;;9.25;9.25;;;;;4.05;100.00;100738.81;5014023;28;45704;-77
2024/01/16 12:30:28;;;;;;;;;12.50;7.50;;;;;3.84;100.00;100693.28;4999737;28;45333;-77
2024/01/16 12:33:09;;;;;;;;;13.00;10.75;;;;;4.11;100.00;100720.78;4997383;28;45254;-76
2024/01/16 12:35:42;;;;;;;;;11.50;9.25;;;;;3.75;100.00;100670.19;5004548;28;45542;-76
2024/01/16 12:38:10;;;;;;;;;11.50;11.00;;;;;4.08;100.00;100697.09;5000868;28;45373;-77
2024/01/16 12:40:36;;;;;;;;;14.25;12.25;;;;;3.79;100.00;100643.41;5001478;28;45262;-77
2024/01/16 12:43:03;;;;;;;;;17.00;15.50;;;;;4.17;100.00;100689.72;5012795;28;45492;-76
2024/01/16 12:45:29;;;;;;;;;14.75;14.00;;;;;3.52;100.00;100575.00;4997023;28;45316;-77
2024/01/16 12:47:57;;;;;;;;;22.75;17.75;;;;;4.19;100.00;100680.22;5000832;28;45401;-76
2024/01/16 12:50:24;;;;;;;;;24.75;18.25;;;;;3.82;100.00;100599.09;4998563;28;45457;-76
2024/01/16 12:52:50;;;;;;;;;21.25;20.00;;;;;4.14;100.00;100659.88;4991540;28;45289;-76
2024/01/16 12:55:17;;;;;;;;;25.50;20.75;;;;;3.81;100.00;100582.53;4999193;28;47279;-76
2024/01/16 12:57:42;;;;;;;;;26.50;26.50;;;;;4.15;100.00;100641.66;4997676;28;45429;-77
2024/01/16 13:00:22;;;;;;;;;22.00;21.00;;;;;4.11;100.00;100626.63;4991591;28;45390;-76
2024/01/16 13:02:52;;;;;;;;;23.50;19.00;;;;;4.30;100.00;100654.56;5000408;28;45321;-76
2024/01/16 13:05:17;;;;;;;;;26.25;24.00;;;;;4.21;100.00;100641.94;4998966;28;46112;-75
2024/01/16 13:07:43;;;;;;;;;22.00;20.00;;;;;3.98;100.00;100592.91;4999730;28;44962;-76
2024/01/16 13:10:15;;;;;;;;;24.75;23.75;;;;;4.32;100.00;100652.03;4998697;28;45368;-76
2024/01/16 13:12:41;;;;;;;;;26.00;20.25;;;;;4.33;100.00;100641.63;4992651;28;45992;-77
2024/01/16 13:15:07;;;;;;;;;30.00;24.00;;;;;4.24;100.00;100625.50;4998450;28;45489;-76
2024/01/16 13:17:34;;;;;;;;;23.50;20.00;;;;;4.31;100.00;100627.56;4998373;28;45341;-76
2024/01/16 13:19:59;;;;;;;;;24.75;20.00;;;;;4.00;100.00;100583.38;4999640;28;45391;-76
2024/01/16 13:22:25;;;;;;;;;30.00;28.50;;;;;4.25;100.00;100622.94;4997025;28;45571;-76
2024/01/16 13:24:50;;;;;;;;;24.75;22.50;;;;;4.21;100.00;100609.66;4996559;28;45381;-77
2024/01/16 13:27:15;;;;;;;;;24.25;20.00;;;;;4.15;100.00;100602.44;4992740;28;45361;-76
2024/01/16 13:29:41;;;;;;;;;23.00;20.25;;;;;3.85;100.00;100560.03;4993944;28;58875;-76
2024/01/16 13:32:07;;;;;;;;;25.50;23.50;;;;;3.91;100.00;100576.00;4991614;28;45507;-76
2024/01/16 13:34:32;;;;;;;;;24.75;21.50;;;;;4.14;100.00;100615.41;4992545;28;45225;-75
2024/01/16 13:37:00;;;;;;;;;20.75;20.00;;;;;2.50;100.00;100328.09;4989032;28;45198;-76
2024/01/16 13:39:27;;;;;;;;;27.25;25.00;;;;;4.19;100.00;100600.84;4990289;28;45329;-76
2024/01/16 13:41:52;;;;;;;;;25.25;22.00;;;;;4.05;100.00;100558.34;4988891;28;45769;-76
2024/01/16 13:44:18;;;;;;;;;24.00;23.75;;;;;3.77;100.00;100506.50;4995450;28;45320;-76
2024/01/16 13:46:44;;;;;;;;;28.25;26.25;;;;;3.88;100.00;100527.91;4999029;28;47344;-76
2024/01/16 13:49:09;;;;;;;;;27.75;25.00;;;;;4.06;100.00;100562.75;4999313;28;45517;-75
2024/01/16 13:51:35;;;;;;;;;32.50;29.00;;;;;4.22;100.00;100574.81;4997569;28;45365;-76
2024/01/16 13:54:00;;;;;;;;;24.75;23.50;;;;;4.18;100.00;100563.34;4993845;28;47028;-75
2024/01/16 13:56:26;;;;;;;;;33.50;30.75;;;;;4.26;100.00;100558.47;4992505;28;45297;-75
2024/01/16 13:58:51;;;;;;;;;25.75;24.25;;;;;3.96;98.64;100503.91;4995002;28;45278;-76
2024/01/16 14:01:18;;;;;;;;;28.00;25.00;;;;;3.94;100.00;100491.59;4992054;28;45357;-75
2024/01/16 14:03:46;;;;;;;;;26.50;25.25;;;;;4.25;100.00;100548.81;4994596;28;45336;-75
2024/01/16 14:06:13;;;;;;;;;36.75;30.25;;;;;4.10;97.94;100512.38;5001848;28;45286;-76
2024/01/16 14:08:38;;;;;;;;;32.25;28.25;;;;;3.99;100.00;100485.75;4998134;28;45505;-76
2024/01/16 14:11:03;;;;;;;;;34.00;31.75;;;;;4.16;100.00;100512.66;5000257;28;45254;-77
2024/01/16 14:13:29;;;;;;;;;31.25;28.25;;;;;4.24;97.57;100526.97;4997339;28;54672;-76
2024/01/16 14:15:54;;;;;;;;;33.50;30.00;;;;;3.63;100.00;100435.28;4998843;28;45194;-77
2024/01/16 14:18:20;;;;;;;;;38.50;30.50;;;;;4.20;100.00;100526.75;4995932;28;45350;-75
2024/01/16 14:20:45;;;;;;;;;39.25;33.25;;;;;4.25;100.00;100527.88;4982034;28;45887;-76
2024/01/16 14:23:10;;;;;;;;;31.00;29.75;;;;;3.92;100.00;100465.38;5000802;28;45474;-76
2024/01/16 14:25:36;;;;;;;;;36.50;32.00;;;;;4.35;100.00;100537.94;5014232;28;45448;-76
2024/01/16 14:28:03;;;;;;;;;30.00;29.50;;;;;4.39;100.00;100533.72;5014790;28;45412;-76
2024/01/16 14:30:29;;;;;;;;;46.00;38.00;;;;;4.43;100.00;100538.28;5000397;28;47116;-76
2024/01/16 14:32:56;;;;;;;;;50.50;40.25;;;;;4.28;100.00;100504.47;5017820;28;45050;-76
2024/01/16 14:35:22;;;;;;;;;51.00;44.50;;;;;3.93;100.00;100438.41;4997925;28;45379;-76
2024/01/16 14:37:47;;;;;;;;;57.00;45.75;;;;;4.45;99.80;100536.59;5013380;28;45357;-76
2024/01/16 14:40:12;;;;;;;;;46.00;42.25;;;;;4.42;100.00;100537.38;5007016;28;45381;-75
2024/01/16 14:42:44;;;;;;;;;61.75;49.25;;;;;3.77;100.00;100425.47;5009227;28;45209;-76
2024/01/16 14:45:11;;;;;;;;;54.75;44.25;;;;;4.19;100.00;100501.44;5012171;28;45337;-76
2024/01/16 14:47:37;;;;;;;;;50.25;41.25;;;;;4.11;96.58;100515.88;5009894;28;45341;-77
2024/01/16 14:50:03;;;;;;;;;50.25;42.25;;;;;3.90;100.00;100463.53;5019668;28;45404;-76
2024/01/16 14:52:29;;;;;;;;;49.50;41.00;;;;;3.92;100.00;100478.47;5003701;28;45369;-76
2024/01/16 14:54:55;;;;;;;;;49.25;41.00;;;;;4.12;100.00;100525.53;5024397;28;45499;-76
2024/01/16 14:57:20;;;;;;;;;41.00;37.25;;;;;4.16;100.00;100530.97;5022038;28;45358;-76
2024/01/16 14:59:45;;;;;;;;;42.50;38.25;;;;;3.86;95.02;100485.09;5025131;28;45245;-76
2024/01/16 15:02:14;;;;;;;;;45.25;39.00;;;;;4.07;96.12;100527.94;5005559;28;47086;-76
2024/01/16 15:04:41;;;;;;;;;43.75;38.25;;;;;4.03;97.20;100523.38;5024316;28;45406;-76
2024/01/16 15:07:06;;;;;;;;;40.75;36.50;;;;;3.91;99.37;100514.97;5024318;28;45535;-75
2024/01/16 15:09:34;;;;;;;;;44.75;36.50;;;;;3.51;97.89;100434.72;5023511;28;45385;-76
2024/01/16 15:12:01;;;;;;;;;39.75;37.25;;;;;3.35;100.00;100420.94;5012718;28;45502;-76
2024/01/16 15:14:26;;;;;;;;;41.00;35.25;;;;;3.52;100.00;100453.06;5023987;28;45437;-76
2024/01/16 15:16:51;;;;;;;;;33.75;32.50;;;;;3.37;100.00;100444.53;5005947;28;45516;-76
2024/01/16 15:19:17;;;;;;;;;32.00;28.00;;;;;3.56;100.00;100486.38;5022604;28;60968;-76
2024/01/16 15:21:42;;;;;;;;;38.00;34.75;;;;;3.39;100.00;100469.00;5006200;28;46960;-76
2024/01/16 15:24:08;;;;;;;;;42.75;35.00;;;;;3.16;100.00;100430.44;5020970;28;45144;-76
2024/01/16 15:26:33;;;;;;;;;25.00;25.00;;;;;3.47;100.00;100492.88;5025046;28;45405;-76
2024/01/16 15:28:58;;;;;;;;;31.75;26.00;;;;;3.28;100.00;100463.28;5005494;28;47303;-75
2024/01/16 15:31:24;;;;;;;;;29.50;27.50;;;;;3.08;100.00;100427.44;5007112;28;45979;-75
2024/01/16 15:33:49;;;;;;;;;35.75;27.00;;;;;3.52;98.50;100517.50;5022487;28;57407;-76
2024/01/16 15:36:14;;;;;;;;;23.25;21.25;;;;;3.11;100.00;100452.00;5024064;28;46295;-75
2024/01/16 15:38:40;;;;;;;;;35.25;28.75;;;;;3.43;100.00;100515.34;5004332;28;45493;-76
2024/01/16 15:41:05;;;;;;;;;35.00;28.75;;;;;2.92;100.00;100431.94;5023330;28;46291;-75
2024/01/16 15:43:31;;;;;;;;;26.00;25.50;;;;;3.14;100.00;100480.88;5001650;28;44732;-76
2024/01/16 15:45:56;;;;;;;;;29.00;25.25;;;;;3.08;100.00;100464.94;5003622;28;44921;-76
2024/01/16 15:48:22;;;;;;;;;25.50;23.50;;;;;3.23;96.47;100500.44;5023334;28;45407;-76
2024/01/16 15:50:47;;;;;;;;;33.75;30.50;;;;;3.19;97.81;100491.53;5025291;28;47229;-76
2024/01/16 15:53:15;;;;;;;;;33.50;26.00;;;;;3.07;100.00;100475.28;5023837;28;45455;-76
2024/01/16 15:55:40;;;;;;;;;20.50;17.75;;;;;2.89;97.20;100452.69;5021351;28;45505;-76
2024/01/16 15:58:06;;;;;;;;;25.00;23.00;;;;;3.05;97.92;100480.44;5024221;28;45742;-76
2024/01/16 16:00:31;;;;;;;;;18.50;13.50;;;;;3.01;95.41;100475.88;5018903;28;46101;-76
2024/01/16 16:02:59;;;;;;;;;21.00;19.50;;;;;2.91;98.60;100471.00;5023111;28;44903;-76
2024/01/16 16:05:25;;;;;;;;;2.00;1.00;;;;;2.89;99.89;100468.34;5006955;28;45439;-76
2024/01/16 16:07:50;;;;;;;;;20.50;15.75;;;;;2.86;100.00;100473.41;5022292;28;45362;-76
2024/01/16 16:10:16;;;;;;;;;18.00;15.25;;;;;2.32;99.13;100386.31;5016785;28;45397;-76
2024/01/16 16:12:41;;;;;;;;;24.25;19.75;;;;;2.79;100.00;100473.91;5021620;28;45487;-75
2024/01/16 16:15:07;;;;;;;;;29.75;23.75;;;;;2.63;100.00;100451.38;5016435;28;45523;-75
2024/01/16 16:17:32;;;;;;;;;20.75;12.50;;;;;2.69;98.37;100477.78;5023159;28;45444;-75
2024/01/16 16:19:58;;;;;;;;;28.50;23.25;;;;;2.31;97.67;100423.66;5019349;28;45308;-73
2024/01/16 16:22:23;;;;;;;;;45.75;36.75;;;;;2.51;98.63;100461.19;5021885;28;49790;-76
2024/01/16 16:24:48;;;;;;;;;24.75;22.25;;;;;2.59;100.00;100482.44;4992322;28;45352;-76
2024/01/16 16:27:25;;;;;;;;;34.25;27.00;;;;;2.52;98.41;100477.72;4978934;28;45605;-75